Time;durP1;ratioP1;P1;durP2;ratioP2;P2;SDS_P1;SDS_P2;PMS_P1;PMS_P2;Temp;Humidity;BMP_temperature;BMP_pressure;BME280_temperature;BME280_humidity;BME280_pressure;Samples;Min_cycle;Max_cycle;Signal;HPM_P1;HPM_P2
2024/01/11 00:00:13;;;;;;;29.42;13.00;;;;;;;-3.57;100.00;103364.63;5025768;28;20123;-69
2024/01/11 00:02:39;;;;;;;28.35;13.50;;;;;;;-3.54;100.00;103363.53;5061641;28;20131;-68
2024/01/11 00:05:06;;;;;;;30.80;14.10;;;;;;;-3.52;100.00;103361.63;5044344;28;20032;-70
2024/01/11 00:07:32;;;;;;;33.35;14.95;;;;;;;-3.50;100.00;103357.13;5039529;28;20424;-70
2024/01/11 00:09:57;;;;;;;32.60;14.85;;;;;;;-3.49;100.00;103356.19;5056830;28;20028;-70
2024/01/11 00:12:23;;;;;;;27.05;13.48;;;;;;;-3.47;100.00;103349.03;5071074;28;20028;-70
2024/01/11 00:14:49;;;;;;;27.63;13.25;;;;;;;-3.46;100.00;103341.06;5042253;28;20040;-70
2024/01/11 00:17:15;;;;;;;28.88;14.52;;;;;;;-3.44;100.00;103338.34;5074607;28;20036;-70
2024/01/11 00:19:41;;;;;;;;;;;;;;;-3.43;100.00;103326.91;5087228;22;20049;-79
2024/01/11 00:22:07;;;;;;;25.35;13.35;;;;;;;-3.47;100.00;103315.81;5016370;28;19917;-74
2024/01/11 00:24:33;;;;;;;24.55;12.95;;;;;;;-3.54;100.00;103296.25;5032027;28;20490;-77
2024/01/11 00:26:58;;;;;;;26.55;13.70;;;;;;;-3.55;100.00;103294.59;5065917;28;20062;-75
2024/01/11 00:29:24;;;;;;;28.58;14.35;;;;;;;-3.60;100.00;103294.94;5046157;28;20493;-74
2024/01/11 00:31:51;;;;;;;29.30;13.73;;;;;;;-3.67;100.00;103293.72;5056794;28;20158;-73
2024/01/11 00:34:17;;;;;;;28.70;14.55;;;;;;;-3.64;100.00;103303.16;5054217;28;20744;-76
2024/01/11 00:36:43;;;;;;;;;;;;;;;-3.62;100.00;103286.38;5022381;28;20097;-76
2024/01/11 00:39:09;;;;;;;29.35;14.88;;;;;;;-3.65;100.00;103278.75;5031498;28;19917;-75
2024/01/11 00:41:35;;;;;;;29.48;14.63;;;;;;;-3.64;100.00;103284.81;5041457;28;20046;-74
2024/01/11 00:44:02;;;;;;;27.13;13.50;;;;;;;-3.65;100.00;103288.38;5022199;28;20570;-74
2024/01/11 00:46:28;;;;;;;29.42;15.05;;;;;;;-3.64;100.00;103290.88;5053192;28;20147;-73
2024/01/11 00:48:53;;;;;;;32.03;14.60;;;;;;;-3.62;100.00;103286.38;5054141;28;20398;-74
2024/01/11 00:51:20;;;;;;;33.17;15.95;;;;;;;-3.59;100.00;103275.69;5021083;28;20111;-75
2024/01/11 00:53:45;;;;;;;30.33;14.82;;;;;;;-3.58;100.00;103279.97;5040039;28;20768;-74
2024/01/11 00:56:19;;;;;;;26.45;13.48;;;;;;;-3.54;100.00;103279.72;5048117;28;20044;-73
2024/01/11 00:58:45;;;;;;;30.23;13.98;;;;;;;-3.53;100.00;103276.13;5048165;28;20044;-74
2024/01/11 01:01:11;;;;;;;29.80;14.48;;;;;;;-3.52;100.00;103272.56;5043029;28;20040;-75
2024/01/11 01:03:37;;;;;;;32.83;15.25;;;;;;;-3.50;100.00;103265.44;5043801;28;20047;-74
2024/01/11 01:06:03;;;;;;;32.58;15.45;;;;;;;-3.48;100.00;103258.31;5065458;28;20036;-74
2024/01/11 01:08:31;;;;;;;30.00;15.27;;;;;;;-3.46;100.00;103251.97;5047675;28;20064;-76
2024/01/11 01:10:57;;;;;;;38.05;16.42;;;;;;;-3.49;100.00;103241.75;5041762;28;20025;-74
2024/01/11 01:13:23;;;;;;;34.33;16.48;;;;;;;-3.48;100.00;103242.59;5047934;28;20036;-74
2024/01/11 01:15:49;;;;;;;31.98;15.25;;;;;;;-3.49;100.00;103241.75;5067173;28;20033;-74
2024/01/11 01:18:16;;;;;;;36.45;15.73;;;;;;;-3.45;100.00;103245.00;5048898;28;20151;-73
2024/01/11 01:20:43;;;;;;;34.75;16.27;;;;;;;-3.45;100.00;103239.75;5044814;28;20280;-73
2024/01/11 01:23:09;;;;;;;31.08;15.27;;;;;;;-3.44;100.00;103238.78;5026409;28;20032;-72
2024/01/11 01:25:35;;;;;;;35.80;17.55;;;;;;;-3.44;100.00;103230.94;5030619;28;20063;-73
2024/01/11 01:28:02;;;;;;;43.22;18.65;;;;;;;-3.48;100.00;103219.00;5028493;28;20101;-73
2024/01/11 01:30:28;;;;;;;43.65;18.85;;;;;;;-3.50;100.00;103228.78;5056829;28;20041;-74
2024/01/11 01:32:55;;;;;;;;;;;;;;;-3.53;100.00;103224.59;5054603;28;20041;-74
2024/01/11 01:35:21;;;;;;;36.28;15.98;;;;;;;-3.55;100.00;103241.38;5042983;28;19921;-74
2024/01/11 01:37:47;;;;;;;35.67;16.65;;;;;;;-3.53;100.00;103247.31;5028598;28;20036;-74
2024/01/11 01:40:14;;;;;;;36.42;16.65;;;;;;;-3.53;100.00;103256.00;5032081;28;20032;-74
2024/01/11 01:42:44;;;;;;;34.88;16.33;;;;;;;-3.49;100.00;103261.88;5027190;28;20548;-73
2024/01/11 01:45:11;;;;;;;34.75;15.95;;;;;;;-3.45;100.00;103258.09;5023066;28;20378;-74
2024/01/11 01:47:40;;;;;;;38.53;18.13;;;;;;;-3.47;100.00;103236.38;5027834;28;20062;-72
2024/01/11 01:50:07;;;;;;;36.63;17.65;;;;;;;-3.47;100.00;103233.78;5044008;28;20033;-74
2024/01/11 01:52:37;;;;;;;39.50;16.63;;;;;;;-3.44;100.00;103233.56;5022186;28;20025;-74
2024/01/11 01:55:05;;;;;;;31.02;15.40;;;;;;;-3.42;100.00;103221.16;5064577;28;20055;-74
2024/01/11 01:57:33;;;;;;;33.40;16.10;;;;;;;-3.44;100.00;103225.69;5013112;28;20055;-73
2024/01/11 02:00:04;;;;;;;31.98;15.63;;;;;;;-3.44;100.00;103236.16;5066139;28;20135;-74
2024/01/11 02:02:39;;;;;;;32.00;14.52;;;;;;;-3.42;100.00;103244.75;5055377;28;20139;-73
2024/01/11 02:05:06;;;;;;;32.33;14.18;;;;;;;-3.39;100.00;103252.34;5058875;28;20037;-76
2024/01/11 02:07:32;;;;;;;30.58;13.55;;;;;;;-3.37;100.00;103255.72;5041222;28;20036;-74
2024/01/11 02:09:58;;;;;;;32.10;14.38;;;;;;;-3.34;100.00;103271.19;5029941;28;20047;-73
2024/01/11 02:12:25;;;;;;;34.28;15.32;;;;;;;-3.37;100.00;103288.00;5006337;28;20029;-74
2024/01/11 02:14:53;;;;;;;32.08;14.18;;;;;;;-3.39;100.00;103289.03;5033371;28;20549;-78
2024/01/11 02:17:19;;;;;;;36.13;15.32;;;;;;;-3.37;100.00;103289.78;5044001;28;20029;-81
2024/01/11 02:19:46;;;;;;;31.60;13.75;;;;;;;-3.35;100.00;103274.75;5032356;28;20119;-73
2024/01/11 02:22:28;;;;;;;28.60;13.75;;;;;;;-3.32;100.00;103274.53;5031438;28;20068;-73
2024/01/11 02:24:54;;;;;;;31.23;14.70;;;;;;;-3.35;100.00;103283.47;5064872;28;20024;-75
2024/01/11 02:27:20;;;;;;;35.30;14.88;;;;;;;-3.33;100.00;103276.31;5045565;28;20748;-76
2024/01/11 02:29:45;;;;;;;30.80;13.82;;;;;;;-3.28;100.00;103275.97;5027430;28;20045;-73
2024/01/11 02:32:11;;;;;;;31.90;13.18;;;;;;;-3.27;100.00;103289.91;5029843;28;20436;-74
2024/01/11 02:34:37;;;;;;;29.23;12.82;;;;;;;-3.25;100.00;103286.25;5062610;28;20028;-75
2024/01/11 02:37:05;;;;;;;28.77;13.05;;;;;;;-3.23;100.00;103263.34;5059525;28;20040;-72
2024/01/11 02:39:31;;;;;;;27.38;11.88;;;;;;;-3.21;100.00;103271.94;5020020;28;20049;-72
2024/01/11 02:41:59;;;;;;;27.60;11.88;;;;;;;-3.19;100.00;103295.41;5064605;28;20099;-72
2024/01/11 02:44:25;;;;;;;28.83;11.90;;;;;;;-3.20;100.00;103299.81;5046213;28;20044;-73
2024/01/11 02:46:52;;;;;;;24.30;10.85;;;;;;;-3.16;100.00;103305.66;5041535;28;20445;-72
2024/01/11 02:49:17;;;;;;;24.05;10.90;;;;;;;-3.18;100.00;103292.69;5059837;28;20507;-74
2024/01/11 02:51:43;;;;;;;28.20;11.70;;;;;;;-3.15;100.00;103281.94;5032427;28;20527;-73
2024/01/11 02:54:09;;;;;;;25.85;11.00;;;;;;;-3.11;100.00;103272.91;5059386;28;20482;-76
2024/01/11 02:56:35;;;;;;;25.67;10.65;;;;;;;-3.10;100.00;103265.88;5039273;28;20037;-75
2024/01/11 02:59:02;;;;;;;;;;;;;;;-3.10;100.00;103266.72;5061323;28;20029;-74
2024/01/11 03:01:28;;;;;;;22.67;9.77;;;;;;;-3.08;100.00;103271.81;5058657;28;19942;-74
2024/01/11 03:03:54;;;;;;;29.23;11.57;;;;;;;-3.10;100.00;103271.94;5029566;28;20028;-74
2024/01/11 03:06:22;;;;;;;;;;;;;;;-3.07;100.00;103282.19;5056931;28;20493;-75
2024/01/11 03:08:49;;;;;;;25.15;11.77;;;;;;;-3.05;100.00;103269.81;5039645;28;19917;-74
2024/01/11 03:11:16;;;;;;;26.20;11.00;;;;;;;-3.02;100.00;103264.31;5027364;28;20506;-73
2024/01/11 03:13:42;;;;;;;29.55;11.60;;;;;;;-3.02;100.00;103259.09;5030190;28;20032;-73
2024/01/11 03:16:08;;;;;;;26.02;11.82;;;;;;;-3.01;100.00;103262.53;5039694;28;20089;-71
2024/01/11 03:18:35;;;;;;;27.30;11.10;;;;;;;-3.00;100.00;103273.84;5011353;28;20045;-76
2024/01/11 03:21:01;;;;;;;27.33;11.25;;;;;;;-2.98;100.00;103278.06;5036531;28;20514;-78
2024/01/11 03:23:26;;;;;;;31.10;11.30;;;;;;;-2.97;100.00;103263.16;5023417;28;20096;-77
2024/01/11 03:25:53;;;;;;;33.22;13.52;;;;;;;-2.94;100.00;103268.16;5050571;28;20123;-79
2024/01/11 03:28:18;;;;;;;32.35;12.95;;;;;;;-2.94;100.00;103271.59;5039980;28;20520;-80
2024/01/11 03:30:44;;;;;;;26.60;12.00;;;;;;;-2.93;100.00;103256.69;5067118;28;20051;-78
2024/01/11 03:33:11;;;;;;;32.72;13.45;;;;;;;-2.91;100.00;103257.41;5032143;28;20060;-72
2024/01/11 03:35:40;;;;;;;31.58;13.85;;;;;;;-2.90;100.00;103269.59;5031795;28;20044;-73
2024/01/11 03:38:07;;;;;;;30.05;12.25;;;;;;;-2.87;100.00;103269.34;5060849;28;20035;-73
2024/01/11 03:40:35;;;;;;;32.25;13.45;;;;;;;-2.86;100.00;103281.50;5043505;28;20071;-74
2024/01/11 03:43:00;;;;;;;36.88;14.18;;;;;;;-2.89;100.00;103276.50;5058853;28;20033;-73
2024/01/11 03:45:27;;;;;;;34.75;13.63;;;;;;;-2.86;100.00;103271.00;5013801;28;20048;-75
2024/01/11 03:47:53;;;;;;;39.05;14.98;;;;;;;-2.86;100.00;103278.88;5044196;28;20086;-72
2024/01/11 03:50:19;;;;;;;34.85;13.40;;;;;;;-2.84;100.00;103292.72;5022945;28;20064;-73
2024/01/11 03:52:46;;;;;;;33.53;13.60;;;;;;;-2.84;100.00;103295.34;5043256;28;20067;-72
2024/01/11 03:55:12;;;;;;;31.77;13.57;;;;;;;-2.80;100.00;103296.75;5040346;28;20037;-73
2024/01/11 03:57:37;;;;;;;38.05;14.60;;;;;;;-2.79;100.00;103290.53;5034396;28;20546;-73
2024/01/11 04:00:05;;;;;;;32.88;13.30;;;;;;;-2.76;100.00;103292.94;5038594;28;20119;-73
2024/01/11 04:02:31;;;;;;;36.47;13.98;;;;;;;-2.76;100.00;103291.16;5046433;28;20033;-73
2024/01/11 04:04:57;;;;;;;36.35;14.68;;;;;;;-2.74;100.00;103275.28;5022465;28;20508;-73
2024/01/11 04:07:22;;;;;;;40.13;14.65;;;;;;;-2.72;100.00;103269.91;5026739;28;20028;-75
2024/01/11 04:09:48;;;;;;;34.92;14.43;;;;;;;-2.71;100.00;103261.94;5025125;28;20048;-74
2024/01/11 04:12:14;;;;;;;38.05;13.52;;;;;;;-2.68;100.00;103253.84;5038818;28;20028;-74
2024/01/11 04:14:40;;;;;;;38.28;15.07;;;;;;;-2.70;100.00;103224.28;5037796;28;20137;-73
2024/01/11 04:17:08;;;;;;;33.35;13.05;;;;;;;-2.65;100.00;103221.25;5057692;28;20079;-75
2024/01/11 04:19:33;;;;;;;37.10;14.57;;;;;;;-2.64;100.00;103223.78;5042287;28;20037;-73
2024/01/11 04:22:00;;;;;;;34.28;14.15;;;;;;;-2.64;100.00;103234.28;5041644;28;20025;-74
2024/01/11 04:24:27;;;;;;;37.67;14.88;;;;;;;-2.63;100.00;103219.38;5053887;28;20578;-73
2024/01/11 04:26:53;;;;;;;40.38;15.68;;;;;;;-2.61;100.00;103220.06;5048763;28;20029;-72
2024/01/11 04:29:19;;;;;;;34.03;13.85;;;;;;;-2.62;100.00;103208.75;5045469;28;20037;-73
2024/01/11 04:31:45;;;;;;;34.80;14.55;;;;;;;-2.60;100.00;103209.44;5012797;28;20145;-74
2024/01/11 04:34:10;;;;;;;40.10;14.70;;;;;;;-2.59;100.00;103205.03;5044532;28;20490;-72
2024/01/11 04:36:39;;;;;;;36.58;15.07;;;;;;;-2.61;100.00;103210.41;5035330;28;20538;-73
2024/01/11 04:39:07;;;;;;;38.75;15.63;;;;;;;-2.60;100.00;103206.81;5023187;28;20048;-73
2024/01/11 04:41:36;;;;;;;38.63;15.10;;;;;;;-2.59;100.00;103191.91;5034480;28;20395;-72
2024/01/11 04:44:03;;;;;;;45.65;16.23;;;;;;;-2.58;100.00;103180.47;5029626;28;20036;-73
2024/01/11 04:46:29;;;;;;;41.10;16.75;;;;;;;-2.55;100.00;103188.94;5042003;28;20059;-75
2024/01/11 04:48:54;;;;;;;40.55;14.77;;;;;;;-2.54;100.00;103195.84;5048473;28;20052;-73
2024/01/11 04:51:20;;;;;;;35.72;14.30;;;;;;;-2.53;100.00;103200.13;5059243;28;20029;-73
2024/01/11 04:53:47;;;;;;;41.40;16.58;;;;;;;-2.54;100.00;103187.97;5045787;28;20114;-75
2024/01/11 04:56:14;;;;;;;37.85;14.68;;;;;;;-2.50;100.00;103183.34;5068802;28;20498;-72
2024/01/11 04:58:41;;;;;;;44.97;16.92;;;;;;;-2.51;100.00;103165.91;5037940;28;20116;-73
2024/01/11 05:01:13;;;;;;;42.75;16.73;;;;;;;-2.52;100.00;103161.59;5043834;28;20029;-73
2024/01/11 05:03:39;;;;;;;46.40;17.75;;;;;;;-2.51;100.00;103184.25;5028115;28;20044;-75
2024/01/11 05:06:05;;;;;;;45.55;17.02;;;;;;;-2.52;100.00;103190.47;5045839;28;20037;-72
2024/01/11 05:08:31;;;;;;;46.65;16.80;;;;;;;-2.51;100.00;103202.63;5028708;28;20028;-73
2024/01/11 05:10:57;;;;;;;49.28;19.00;;;;;;;-2.49;100.00;103206.81;5032225;28;20032;-74
2024/01/11 05:13:23;;;;;;;52.35;19.13;;;;;;;-2.48;100.00;103212.91;5031967;28;20038;-76
2024/01/11 05:15:49;;;;;;;51.47;18.80;;;;;;;-2.52;100.00;103212.28;5043903;28;20036;-73
2024/01/11 05:18:15;;;;;;;51.60;19.15;;;;;;;-2.48;100.00;103207.66;5041629;28;20513;-73
2024/01/11 05:20:42;;;;;;;55.03;21.52;;;;;;;-2.51;100.00;103203.50;5011506;28;20532;-76
2024/01/11 05:23:08;;;;;;;55.60;20.90;;;;;;;-2.51;100.00;103194.75;5063734;28;20028;-73
2024/01/11 05:25:34;;;;;;;53.55;20.80;;;;;;;-2.52;100.00;103191.31;5046264;28;20032;-75
2024/01/11 05:28:01;;;;;;;53.00;19.48;;;;;;;-2.48;100.00;103186.66;5059640;28;20043;-74
2024/01/11 05:30:27;;;;;;;61.22;22.45;;;;;;;-2.49;100.00;103206.81;5047509;28;20131;-74
2024/01/11 05:32:54;;;;;;;58.58;22.13;;;;;;;-2.52;100.00;103207.03;5043592;28;20032;-75
2024/01/11 05:35:20;;;;;;;62.10;23.15;;;;;;;-2.53;100.00;103210.63;5043667;28;20028;-74
2024/01/11 05:37:47;;;;;;;60.17;23.27;;;;;;;-2.49;100.00;103229.59;5029998;28;20059;-74
2024/01/11 05:40:13;;;;;;;65.75;22.48;;;;;;;-2.48;100.00;103226.84;5067594;28;20028;-73
2024/01/11 05:42:39;;;;;;;60.75;21.63;;;;;;;-2.43;100.00;103225.66;5035158;28;20043;-74
2024/01/11 05:45:07;;;;;;;61.53;20.63;;;;;;;-2.40;100.00;103233.28;5048025;28;20048;-74
2024/01/11 05:47:34;;;;;;;59.70;21.70;;;;;;;-2.41;100.00;103229.81;5050138;28;20501;-74
2024/01/11 05:50:00;;;;;;;62.60;22.75;;;;;;;-2.41;100.00;103221.94;5043653;28;20047;-73
2024/01/11 05:52:26;;;;;;;63.15;22.25;;;;;;;-2.43;100.00;103209.91;5045670;28;20041;-73
2024/01/11 05:54:53;;;;;;;59.25;23.02;;;;;;;-2.41;100.00;103208.00;5048925;28;20035;-74
2024/01/11 05:57:19;;;;;;;56.58;20.85;;;;;;;-2.41;100.00;103208.00;5062267;28;20040;-75
2024/01/11 05:59:45;;;;;;;53.70;19.88;;;;;;;-2.37;100.00;103198.88;5062283;28;20131;-76
2024/01/11 06:02:13;;;;;;;55.30;20.42;;;;;;;-2.39;100.00;103195.56;5052559;28;20029;-75
2024/01/11 06:04:39;;;;;;;54.33;20.20;;;;;;;-2.40;100.00;103201.78;5012165;28;20041;-75
2024/01/11 06:07:06;;;;;;;;;;;;;;;-2.40;100.00;103193.91;5023577;28;20072;-74
2024/01/11 06:09:34;;;;;;;47.35;16.98;;;;;;;-2.40;100.00;103184.25;5044452;28;19920;-74
2024/01/11 06:12:01;;;;;;;48.90;18.70;;;;;;;-2.40;100.00;103170.28;5037205;28;20039;-74
2024/01/11 06:14:28;;;;;;;45.67;18.45;;;;;;;-2.44;100.00;103169.69;5026245;28;20102;-74
2024/01/11 06:16:55;;;;;;;43.40;17.90;;;;;;;-2.43;100.00;103179.25;5042650;28;20442;-74
2024/01/11 06:19:21;;;;;;;35.65;14.65;;;;;;;-2.41;100.00;103187.81;5069172;22;20120;-72
2024/01/11 06:21:47;;;;;;;31.67;13.25;;;;;;;-2.41;100.00;103189.63;5055922;28;20046;-72
2024/01/11 06:24:12;;;;;;;36.92;14.10;;;;;;;-2.39;100.00;103191.16;5065040;28;20031;-72
2024/01/11 06:26:37;;;;;;;30.80;12.90;;;;;;;-2.38;100.00;103187.56;5046643;28;20048;-72
2024/01/11 06:29:03;;;;;;;27.55;12.38;;;;;;;-2.39;100.00;103195.56;5024837;28;20123;-72
2024/01/11 06:31:28;;;;;;;29.40;11.90;;;;;;;-2.42;100.00;103203.69;5039464;28;20044;-72
2024/01/11 06:33:54;;;;;;;27.08;12.20;;;;;;;-2.42;100.00;103190.56;5033871;28;20505;-73
2024/01/11 06:36:21;;;;;;;28.02;11.93;;;;;;;-2.43;100.00;103188.91;5046154;28;20063;-72
2024/01/11 06:38:46;;;;;;;26.40;10.80;;;;;;;-2.43;100.00;103184.50;5039067;28;20037;-73
2024/01/11 06:41:12;;;;;;;27.65;11.88;;;;;;;-2.42;100.00;103190.56;5058647;28;20039;-72
2024/01/11 06:43:38;;;;;;;25.50;11.07;;;;;;;-2.41;100.00;103189.63;5061912;28;20036;-73
2024/01/11 06:46:04;;;;;;;22.45;9.80;;;;;;;-2.44;100.00;103188.06;5044030;28;20093;-73
2024/01/11 06:48:31;;;;;;;24.13;9.60;;;;;;;-2.42;100.00;103190.56;5043549;28;20686;-72
2024/01/11 06:50:57;;;;;;;19.83;8.52;;;;;;;-2.44;100.00;103198.56;5034469;28;20036;-72
2024/01/11 06:53:22;;;;;;;22.83;8.93;;;;;;;-2.44;100.00;103208.22;5042815;28;20058;-72
2024/01/11 06:55:48;;;;;;;21.90;8.85;;;;;;;-2.44;100.00;103208.22;5010901;28;20501;-72
2024/01/11 06:58:15;;;;;;;21.20;9.27;;;;;;;-2.40;100.00;103209.66;5035716;28;20047;-72
2024/01/11 07:00:42;;;;;;;20.13;7.65;;;;;;;-2.39;100.00;103208.69;5057607;28;20119;-72
2024/01/11 07:03:10;;;;;;;24.65;8.85;;;;;;;-2.39;100.00;103203.44;5056298;28;20036;-72
2024/01/11 07:05:36;;;;;;;26.00;9.55;;;;;;;-2.39;100.00;103206.91;5060363;28;20024;-72
2024/01/11 07:08:01;;;;;;;23.23;9.68;;;;;;;-2.36;100.00;103204.03;5040044;28;20630;-72
2024/01/11 07:10:27;;;;;;;27.13;9.38;;;;;;;-2.36;100.00;103198.78;5061314;28;20063;-72
2024/01/11 07:12:52;;;;;;;26.83;10.18;;;;;;;-2.32;100.00;103201.97;5045363;28;20064;-72
2024/01/11 07:15:18;;;;;;;28.60;9.93;;;;;;;-2.31;100.00;103207.09;5042391;28;20032;-73
2024/01/11 07:17:44;;;;;;;24.52;8.20;;;;;;;-2.30;100.00;103216.66;5046794;28;20080;-72
2024/01/11 07:20:10;;;;;;;26.58;9.80;;;;;;;-2.28;100.00;103221.78;5041526;28;20036;-73
2024/01/11 07:22:35;;;;;;;24.40;8.73;;;;;;;-2.29;100.00;103220.13;5043779;28;20037;-72
2024/01/11 07:25:03;;;;;;;24.20;7.47;;;;;;;-2.28;100.00;103227.03;5058004;28;20130;-72
2024/01/11 07:27:29;;;;;;;18.80;6.75;;;;;;;-2.28;100.00;103229.66;5044702;28;20117;-71
2024/01/11 07:29:55;;;;;;;20.50;7.53;;;;;;;-2.27;100.00;103229.53;5042664;28;20072;-72
2024/01/11 07:32:20;;;;;;;22.30;7.28;;;;;;;-2.27;100.00;103231.31;5043444;28;20037;-72
2024/01/11 07:34:46;;;;;;;21.20;7.22;;;;;;;-2.22;100.00;103234.41;5046016;28;20508;-72
2024/01/11 07:37:12;;;;;;;20.58;6.30;;;;;;;-2.20;100.00;103227.25;5043034;28;20085;-73
2024/01/11 07:39:37;;;;;;;26.58;7.97;;;;;;;-2.20;100.00;103232.50;5062398;28;20106;-73
2024/01/11 07:42:03;;;;;;;26.25;7.93;;;;;;;-2.19;100.00;103231.53;5058698;28;20044;-73
2024/01/11 07:44:29;;;;;;;24.45;7.65;;;;;;;-2.17;100.00;103232.22;5027906;28;20039;-73
2024/01/11 07:46:55;;;;;;;28.15;8.00;;;;;;;-2.16;100.00;103212.91;5043418;28;20119;-72
2024/01/11 07:49:21;;;;;;;31.08;8.20;;;;;;;-2.15;100.00;103230.34;5041304;28;20092;-72
2024/01/11 07:51:48;;;;;;;26.95;8.73;;;;;;;-2.12;100.00;103226.63;5014244;28;20146;-72
2024/01/11 07:54:13;;;;;;;30.92;8.23;;;;;;;-2.11;100.00;103236.16;5026256;28;20603;-72
2024/01/11 07:56:40;;;;;;;28.92;8.68;;;;;;;-2.11;100.00;103241.41;5043722;28;20041;-72
2024/01/11 07:59:05;;;;;;;27.55;7.97;;;;;;;-2.08;100.00;103247.25;5040165;28;20064;-73
2024/01/11 08:01:32;;;;;;;27.83;7.70;;;;;;;-2.05;100.00;103247.00;5039772;28;20136;-72
2024/01/11 08:03:57;;;;;;;29.35;8.13;;;;;;;-2.01;100.00;103248.41;5038345;28;20033;-73
2024/01/11 08:06:23;;;;;;;25.98;7.22;;;;;;;-1.96;100.00;103250.69;5061142;28;20040;-73
2024/01/11 08:08:51;;;;;;;30.00;7.95;;;;;;;-1.94;100.00;103241.72;5046263;28;20036;-73
2024/01/11 08:11:18;;;;;;;25.15;8.35;;;;;;;-1.93;100.00;103235.50;5047688;28;20521;-72
2024/01/11 08:13:44;;;;;;;23.25;7.70;;;;;;;-1.89;100.00;103235.25;5047848;28;20037;-72
2024/01/11 08:16:16;;;;;;;24.80;7.28;;;;;;;-1.85;100.00;103231.41;5027281;28;20413;-72
2024/01/11 08:18:42;;;;;;;20.08;6.25;;;;;;;-1.82;100.00;103233.78;5041235;28;20037;-72
2024/01/11 08:21:09;;;;;;;25.48;8.00;;;;;;;-1.78;100.00;103230.75;5047114;28;20035;-73
2024/01/11 08:23:34;;;;;;;29.42;8.07;;;;;;;-1.75;100.00;103211.31;5044908;28;20054;-73
2024/01/11 08:26:00;;;;;;;25.83;7.70;;;;;;;-1.73;100.00;103209.38;5034457;28;20486;-73
2024/01/11 08:28:25;;;;;;;29.13;8.52;;;;;;;-1.70;100.00;103212.56;5028124;28;20121;-72
2024/01/11 08:30:51;;;;;;;29.23;7.50;;;;;;;-1.66;100.00;103210.53;5065575;28;20115;-73
2024/01/11 08:33:16;;;;;;;23.52;7.60;;;;;;;-1.63;100.00;103207.63;5063538;28;20032;-72
2024/01/11 08:35:42;;;;;;;25.17;8.07;;;;;;;-1.60;100.00;103210.00;5048985;28;20052;-72
2024/01/11 08:38:08;;;;;;;27.08;8.43;;;;;;;-1.59;100.00;103211.66;5041824;28;20040;-72
2024/01/11 08:40:33;;;;;;;29.48;8.20;;;;;;;-1.55;100.00;103213.09;5017190;28;20036;-72
2024/01/11 08:42:59;;;;;;;27.45;8.77;;;;;;;-1.52;100.00;103204.09;5064312;28;20107;-72
2024/01/11 08:45:25;;;;;;;30.20;8.57;;;;;;;-1.52;100.00;103212.81;5046999;28;20078;-73
2024/01/11 08:47:51;;;;;;;26.60;8.48;;;;;;;-1.50;100.00;103216.13;5045821;28;20029;-72
2024/01/11 08:50:17;;;;;;;26.92;8.52;;;;;;;-1.46;100.00;103208.84;5064510;28;20060;-72
2024/01/11 08:52:43;;;;;;;34.53;9.40;;;;;;;-1.45;100.00;103203.44;5045198;28;20229;-72
2024/01/11 08:55:09;;;;;;;28.42;8.45;;;;;;;-1.45;100.00;103192.94;5063709;28;20541;-72
2024/01/11 08:57:38;;;;;;;28.60;8.57;;;;;;;-1.43;100.00;103185.75;5012075;28;20067;-72
2024/01/11 09:00:06;;;;;;;24.05;8.13;;;;;;;-1.40;100.00;103185.50;5041889;28;20047;-72
2024/01/11 09:02:32;;;;;;;29.52;8.88;;;;;;;-1.36;100.00;103193.94;5047012;28;20040;-71
2024/01/11 09:04:57;;;;;;;21.98;7.30;;;;;;;-1.33;100.00;103198.97;5044240;28;20039;-72
2024/01/11 09:07:23;;;;;;;24.60;7.82;;;;;;;-1.30;100.00;103200.47;5044397;28;20037;-71
2024/01/11 09:09:49;;;;;;;31.00;8.70;;;;;;;-1.27;100.00;103189.72;5046248;28;20085;-71
2024/01/11 09:12:14;;;;;;;27.45;8.75;;;;;;;-1.26;100.00;103178.22;5044491;28;20029;-72
2024/01/11 09:14:40;;;;;;;23.15;7.18;;;;;;;-1.23;100.00;103197.19;5044171;28;20048;-72
2024/01/11 09:17:08;;;;;;;24.45;8.10;;;;;;;-1.18;100.00;103194.19;5041531;28;20083;-72
2024/01/11 09:19:33;;;;;;;21.77;7.88;;;;;;;-1.18;100.00;103186.28;5031369;28;20090;-72
2024/01/11 09:22:00;;;;;;;26.88;7.95;;;;;;;-1.16;100.00;103187.81;5046363;28;20056;-72
2024/01/11 09:24:25;;;;;;;24.50;7.93;;;;;;;-1.14;100.00;103182.44;5046887;28;20909;-72
2024/01/11 09:26:51;;;;;;;28.02;9.07;;;;;;;-1.12;100.00;103175.25;5064776;28;20044;-72
2024/01/11 09:29:16;;;;;;;29.35;8.40;;;;;;;-1.07;100.00;103178.31;5039861;28;20706;-72
2024/01/11 09:31:42;;;;;;;27.85;9.65;;;;;;;-1.04;100.00;103179.84;5042137;28;20059;-72
2024/01/11 09:34:08;;;;;;;25.60;9.65;;;;;;;-1.02;100.00;103178.72;5041818;28;20028;-72
2024/01/11 09:36:33;;;;;;;31.75;9.63;;;;;;;-0.99;100.00;103177.63;5040869;28;20084;-72
2024/01/11 09:38:59;;;;;;;31.88;9.88;;;;;;;-0.98;100.00;103184.56;5028440;28;20044;-72
2024/01/11 09:41:25;;;;;;;39.85;11.30;;;;;;;-0.98;100.00;103174.88;5061613;28;20490;-72
2024/01/11 09:43:54;;;;;;;33.30;9.57;;;;;;;-0.98;100.00;103174.03;5028969;28;20517;-72
2024/01/11 09:46:21;;;;;;;37.42;11.65;;;;;;;-1.00;100.00;103175.97;5061603;28;20399;-71
2024/01/11 09:48:48;;;;;;;31.90;9.32;;;;;;;-1.04;100.00;103175.41;5064235;28;20060;-72
2024/01/11 09:51:16;;;;;;;34.95;9.10;;;;;;;-1.03;100.00;103171.81;5059478;28;20028;-72
2024/01/11 09:53:42;;;;;;;28.58;8.88;;;;;;;-1.02;100.00;103173.47;5063302;28;20040;-72
2024/01/11 09:56:09;;;;;;;33.08;10.15;;;;;;;-1.00;100.00;103170.72;5053798;28;20097;-72
2024/01/11 09:58:39;;;;;;;28.10;8.80;;;;;;;-1.00;100.00;103165.47;5039416;28;20052;-71
2024/01/11 10:01:12;;;;;;;27.27;9.88;;;;;;;-0.98;100.00;103168.78;5027856;28;20044;-72
2024/01/11 10:03:40;;;;;;;29.05;8.90;;;;;;;-0.96;100.00;103167.66;5042056;28;20115;-72
2024/01/11 10:06:07;;;;;;;21.80;7.47;;;;;;;-0.91;100.00;103169.91;5044218;28;20025;-73
2024/01/11 10:08:32;;;;;;;27.40;7.65;;;;;;;-0.92;100.00;103163.81;5025753;28;20116;-72
2024/01/11 10:10:58;;;;;;;22.27;7.07;;;;;;;-0.94;100.00;103165.75;5047808;28;20107;-72
2024/01/11 10:13:28;;;;;;;26.58;7.97;;;;;;;-0.93;100.00;103166.59;5064114;28;20044;-72
2024/01/11 10:16:05;;;;;;;18.23;6.72;;;;;;;-0.94;100.00;103160.50;5042541;28;20036;-72
2024/01/11 10:18:30;;;;;;;23.02;7.75;;;;;;;-0.94;100.00;103165.75;5044078;28;20067;-72
2024/01/11 10:20:56;;;;;;;25.77;7.72;;;;;;;-0.95;100.00;103164.09;5061376;28;20411;-72
2024/01/11 10:23:22;;;;;;;25.58;7.13;;;;;;;-0.95;100.00;103152.72;5031653;28;20033;-71
2024/01/11 10:25:48;;;;;;;26.88;8.25;;;;;;;-0.96;100.00;103145.78;5012690;28;20043;-72
2024/01/11 10:28:14;;;;;;;26.77;8.90;;;;;;;-0.99;100.00;103146.06;5037681;28;20039;-72
2024/01/11 10:30:40;;;;;;;28.45;9.57;;;;;;;-0.98;100.00;103143.31;5044447;28;20094;-72
2024/01/11 10:33:07;;;;;;;29.23;10.23;;;;;;;-0.98;100.00;103153.81;5041379;28;20037;-72
2024/01/11 10:35:33;;;;;;;;;;;;;;;-0.95;100.00;103150.94;5043766;28;20275;-71
2024/01/11 10:38:03;;;;;;;26.90;8.93;;;;;;;-0.92;100.00;103148.03;5032507;28;19927;-71
2024/01/11 10:40:29;;;;;;;27.23;10.05;;;;;;;-0.88;100.00;103152.06;5047894;28;20067;-72
2024/01/11 10:42:59;;;;;;;33.28;9.65;;;;;;;-0.85;100.00;103157.03;5047812;28;20033;-72
2024/01/11 10:45:25;;;;;;;26.48;9.30;;;;;;;-0.78;100.00;103162.59;5047744;28;20048;-72
2024/01/11 10:47:59;;;;;;;28.60;9.80;;;;;;;-0.71;100.00;103178.69;5047875;28;20028;-71
2024/01/11 10:50:25;;;;;;;29.40;9.55;;;;;;;-0.68;100.00;103173.13;5042082;28;20039;-72
2024/01/11 10:53:03;;;;;;;30.92;11.18;;;;;;;-0.65;100.00;103178.97;5041565;28;20032;-73
2024/01/11 10:55:32;;;;;;;31.23;10.45;;;;;;;-0.62;100.00;103191.00;5064103;28;20051;-72
2024/01/11 10:58:00;;;;;;;31.65;10.73;;;;;;;-0.63;100.00;103205.97;5061774;28;20032;-72
2024/01/11 11:00:27;;;;;;;33.95;10.70;;;;;;;-0.60;100.00;103210.97;5044262;28;20052;-72
2024/01/11 11:02:54;;;;;;;32.53;10.80;;;;;;;-0.58;100.00;103202.94;5046020;28;20174;-72